Time;durP1;ratioP1;P1;durP2;ratioP2;P2;SDS_P1;SDS_P2;PMS_P1;PMS_P2;Temp;Humidity;BMP_temperature;BMP_pressure;BME280_temperature;BME280_humidity;BME280_pressure;Samples;Min_cycle;Max_cycle;Signal;HPM_P1;HPM_P2
2022/09/14 00:01:17;;;;;;;;;;;;;;;;;;5075860;28;20007;-87
2022/09/14 00:03:43;;;;;;;;;;;;;;;;;;5058039;28;20002;-87
2022/09/14 00:06:12;;;;;;;;;;;;;;;;;;5075828;28;19917;-86
2022/09/14 00:08:38;;;;;;;;;;;;;;;;;;5075626;28;20476;-86
2022/09/14 00:11:07;;;;;;;;;;;;;;;;;;5075460;28;19999;-87
2022/09/14 00:13:34;;;;;;;;;;;;;;;;;;5040700;28;19924;-88
2022/09/14 00:16:13;;;;;;;;;;;;;;;;;;5057553;28;19986;-87
2022/09/14 00:18:38;;;;;;;;;;;;;;;;;;5057219;28;19931;-86
2022/09/14 00:21:05;;;;;;;;;;;;;;;;;;5057347;28;19920;-88
2022/09/14 00:23:30;;;;;;;;;;;;;;;;;;5075165;28;20016;-87
2022/09/14 00:26:01;;;;;;;;;;;;;;;;;;5075178;28;20003;-87
2022/09/14 00:28:27;;;;;;;;;;;;;;;;;;5074835;28;19917;-86
2022/09/14 00:30:52;;;;;;;;;;;;;;;;;;5074591;28;19916;-87
2022/09/14 00:33:18;;;;;;;;;;;;;;;;;;5056672;28;20422;-88
2022/09/14 00:35:43;;;;;;;;;;;;;;;;;;5074662;28;20323;-86
2022/09/14 00:38:09;;;;;;;;;;;;;;;;;;5074553;28;20011;-86
2022/09/14 00:40:34;;;;;;;;;;;;;;;;;;5074521;28;19921;-88
2022/09/14 00:43:00;;;;;;;;;;;;;;;;;;5074517;28;20017;-87
2022/09/14 00:45:26;;;;;;;;;;;;;;;;;;5074345;28;19920;-87
2022/09/14 00:47:52;;;;;;;;;;;;;;;;;;5074314;28;19939;-87
2022/09/14 00:50:18;;;;;;;;;;;;;;;;;;5074319;28;19916;-87
2022/09/14 00:52:46;;;;;;;;;;;;;;;;;;5074454;28;19912;-87
2022/09/14 00:55:13;;;;;;;;;;;;;;;;;;5056547;28;20288;-88
2022/09/14 00:57:41;;;;;;;;;;;;;;;;;;5056524;28;19964;-87
2022/09/14 01:00:09;;;;;;;;;;;;;;;;;;5074259;28;19917;-87
2022/09/14 01:02:35;;;;;;;;;;;;;;;;;;5056519;28;20279;-87
2022/09/14 01:05:00;;;;;;;;;;;;;;;;;;5074108;28;19913;-86
2022/09/14 01:07:33;;;;;;;;;;;;;;;;;;5076248;28;19917;-88
2022/09/14 01:09:58;;;;;;;;;;;;;;;;;;5073960;28;19920;-87
2022/09/14 01:12:23;;;;;;;;;;;;;;;;;;5074844;28;19924;-87
2022/09/14 01:14:55;;;;;;;;;;;;;;;;;;5056005;28;19916;-87
2022/09/14 01:17:28;;;;;;;;;;;;;;;;;;5073624;28;19924;-88
2022/09/14 01:19:54;;;;;;;;;;;;;;;;;;5073803;28;19924;-86
2022/09/14 01:22:24;;;;;;;;;;;;;;;;;;5056028;28;19916;-87
2022/09/14 01:24:58;;;;;;;;;;;;;;;;;;5055717;28;19916;-86
2022/09/14 01:27:53;;;;;;;;;;;;;;;;;;5073815;28;19921;-87
2022/09/14 01:30:21;;;;;;;;;;;;;;;;;;5057285;28;19956;-86
2022/09/14 01:32:56;;;;;;;;;;;;;;;;;;5080457;28;19927;-87
2022/09/14 01:35:28;;;;;;;;;;;;;;;;;;5073826;28;19999;-86
2022/09/14 01:38:01;;;;;;;;;;;;;;;;;;5055512;28;19927;-85
2022/09/14 01:40:33;;;;;;;;;;;;;;;;;;5055567;28;19917;-87
2022/09/14 01:43:14;;;;;;;;;;;;;;;;;;5061607;28;19947;-87
2022/09/14 01:45:42;;;;;;;;;;;;;;;;;;5082845;28;19927;-87
2022/09/14 01:48:09;;;;;;;;;;;;;;;;;;5077656;28;19917;-88
2022/09/14 01:50:43;;;;;;;;;;;;;;;;;;5073294;28;19962;-86
2022/09/14 01:53:11;;;;;;;;;;;;;;;;;;5075573;28;20455;-87
2022/09/14 01:55:42;;;;;;;;;;;;;;;;;;5059973;28;19921;-87
2022/09/14 01:58:26;;;;;;;;;;;;;;;;;;5055972;28;20352;-86
2022/09/14 02:00:53;;;;;;;;;;;;;;;;;;5073148;28;19923;-87
2022/09/14 02:03:21;;;;;;;;;;;;;;;;;;5073040;28;19916;-87
2022/09/14 02:05:46;;;;;;;;;;;;;;;;;;5072650;28;20012;-87
2022/09/14 02:08:11;;;;;;;;;;;;;;;;;;5073026;28;20358;-87
2022/09/14 02:10:37;;;;;;;;;;;;;;;;;;5073328;28;19917;-85
2022/09/14 02:13:02;;;;;;;;;;;;;;;;;;5055067;28;19912;-87
2022/09/14 02:15:28;;;;;;;;;;;;;;;;;;5073132;28;19974;-85
2022/09/14 02:17:53;;;;;;;;;;;;;;;;;;5073012;28;19921;-87
2022/09/14 02:20:26;;;;;;;;;;;;;;;;;;5055025;28;20387;-89
2022/09/14 02:22:51;;;;;;;;;;;;;;;;;;5055068;28;20368;-88
2022/09/14 02:25:18;;;;;;;;;;;;;;;;;;5055000;28;19920;-88
2022/09/14 02:27:43;;;;;;;;;;;;;;;;;;5072842;28;19917;-89
2022/09/14 02:30:09;;;;;;;;;;;;;;;;;;5072986;28;20421;-88
2022/09/14 02:33:13;;;;;;;;;;;;;;;;;;5073158;28;19927;-88
2022/09/14 02:35:38;;;;;;;;;;;;;;;;;;4975351;28;19922;-88
2022/09/14 02:38:26;;;;;;;;;;;;;;;;;;4991384;28;19924;-88
2022/09/14 02:41:04;;;;;;;;;;;;;;;;;;5041026;28;19920;-88
2022/09/14 02:43:38;;;;;;;;;;;;;;;;;;5072865;28;20359;-87
2022/09/14 02:46:27;;;;;;;;;;;;;;;;;;5072910;28;19917;-88
2022/09/14 02:49:15;;;;;;;;;;;;;;;;;;5054434;28;20386;-87
2022/09/14 02:51:45;;;;;;;;;;;;;;;;;;5072813;28;19917;-87
2022/09/14 02:54:16;;;;;;;;;;;;;;;;;;5054755;28;19917;-88
2022/09/14 02:56:43;;;;;;;;;;;;;;;;;;5054692;28;20291;-88
2022/09/14 02:59:09;;;;;;;;;;;;;;;;;;5054962;28;19964;-91
2022/09/14 03:01:34;;;;;;;;;;;;;;;;;;5073576;28;20457;-92
2022/09/14 03:04:00;;;;;;;;;;;;;;;;;;5054850;28;19925;-91
2022/09/14 03:06:25;;;;;;;;;;;;;;;;;;5069766;28;20283;-90
2022/09/14 03:08:51;;;;;;;;;;;;;;;;;;5056230;28;19951;-91
2022/09/14 03:11:16;;;;;;;;;;;;;;;;;;5045800;28;19984;-89
2022/09/14 03:13:41;;;;;;;;;;;;;;;;;;5052209;28;20018;-88
2022/09/14 03:16:08;;;;;;;;;;;;;;;;;;5052387;28;19917;-87
2022/09/14 03:18:34;;;;;;;;;;;;;;;;;;5039418;28;20019;-87
2022/09/14 03:21:07;;;;;;;;;;;;;;;;;;5075758;28;19967;-89
2022/09/14 03:23:37;;;;;;;;;;;;;;;;;;5058765;28;19916;-89
2022/09/14 03:26:05;;;;;;;;;;;;;;;;;;5058370;28;19921;-88
2022/09/14 03:28:30;;;;;;;;;;;;;;;;;;5079881;28;19920;-88
2022/09/14 03:30:59;;;;;;;;;;;;;;;;;;5084779;28;19928;-88
2022/09/14 03:33:24;;;;;;;;;;;;;;;;;;5067406;28;19920;-88
2022/09/14 03:35:50;;;;;;;;;;;;;;;;;;5087710;28;20416;-89
2022/09/14 03:38:15;;;;;;;;;;;;;;;;;;5077664;28;19916;-88
2022/09/14 03:40:42;;;;;;;;;;;;;;;;;;5081833;28;19944;-89
2022/09/14 03:43:08;;;;;;;;;;;;;;;;;;5069591;28;19920;-89
2022/09/14 03:45:35;;;;;;;;;;;;;;;;;;5067244;28;19935;-89
2022/09/14 03:48:01;;;;;;;;;;;;;;;;;;5062157;28;19916;-88
2022/09/14 03:50:26;;;;;;;;;;;;;;;;;;5083740;28;19924;-88
2022/09/14 03:52:51;;;;;;;;;;;;;;;;;;5086656;28;19920;-88
2022/09/14 03:55:18;;;;;;;;;;;;;;;;;;5080848;28;19943;-86
2022/09/14 03:57:44;;;;;;;;;;;;;;;;;;5080896;28;19913;-87
2022/09/14 04:00:10;;;;;;;;;;;;;;;;;;5075692;28;19969;-88
2022/09/14 04:02:36;;;;;;;;;;;;;;;;;;5074303;28;19924;-88
2022/09/14 04:05:01;;;;;;;;;;;;;;;;;;5075585;28;20300;-88
2022/09/14 04:07:27;;;;;;;;;;;;;;;;;;5074789;28;19924;-87
2022/09/14 04:09:52;;;;;;;;;;;;;;;;;;5074400;28;19923;-87
2022/09/14 04:12:18;;;;;;;;;;;;;;;;;;5074114;28;19923;-88
2022/09/14 04:14:43;;;;;;;;;;;;;;;;;;5075491;28;20346;-88
2022/09/14 04:17:09;;;;;;;;;;;;;;;;;;5043209;28;20006;-88
2022/09/14 04:19:36;;;;;;;;;;;;;;;;;;5055228;28;20381;-86
2022/09/14 04:22:02;;;;;;;;;;;;;;;;;;5055726;28;19917;-88
2022/09/14 04:24:27;;;;;;;;;;;;;;;;;;5055533;28;19924;-88
2022/09/14 04:26:53;;;;;;;;;;;;;;;;;;5054966;28;19963;-89
2022/09/14 04:29:18;;;;;;;;;;;;;;;;;;5036546;28;19947;-87
2022/09/14 04:31:43;;;;;;;;;;;;;;;;;;5057095;28;19917;-89
2022/09/14 04:34:11;;;;;;;;;;;;;;;;;;5085908;28;19980;-87
2022/09/14 04:36:36;;;;;;;;;;;;;;;;;;5056294;28;19925;-88
2022/09/14 04:39:02;;;;;;;;;;;;;;;;;;5057327;28;19926;-88
2022/09/14 04:41:28;;;;;;;;;;;;;;;;;;5073212;28;19917;-88
2022/09/14 04:43:54;;;;;;;;;;;;;;;;;;5073490;28;19917;-90
2022/09/14 04:46:24;;;;;;;;;;;;;;;;;;5073814;28;20005;-90
2022/09/14 04:48:50;;;;;;;;;;;;;;;;;;5072636;28;19928;-90
2022/09/14 04:51:17;;;;;;;;;;;;;;;;;;5072763;28;19917;-88
2022/09/14 04:53:43;;;;;;;;;;;;;;;;;;5073862;28;20006;-89
2022/09/14 04:56:11;;;;;;;;;;;;;;;;;;5074312;28;19928;-90
2022/09/14 04:58:38;;;;;;;;;;;;;;;;;;5074404;28;19927;-90
2022/09/14 05:01:04;;;;;;;;;;;;;;;;;;5072824;28;19921;-91
2022/09/14 05:03:30;;;;;;;;;;;;;;;;;;5072860;28;19963;-89
2022/09/14 05:06:00;;;;;;;;;;;;;;;;;;5074137;28;19959;-89
2022/09/14 05:08:25;;;;;;;;;;;;;;;;;;5073951;28;20410;-89
2022/09/14 05:10:54;;;;;;;;;;;;;;;;;;5074040;28;19916;-89
2022/09/14 05:13:20;;;;;;;;;;;;;;;;;;5072658;28;20367;-89
2022/09/14 05:15:45;;;;;;;;;;;;;;;;;;5072598;28;19917;-89
2022/09/14 05:18:11;;;;;;;;;;;;;;;;;;5073549;28;20372;-89
2022/09/14 05:20:36;;;;;;;;;;;;;;;;;;5073772;28;19920;-88
2022/09/14 05:23:02;;;;;;;;;;;;;;;;;;5073696;28;19917;-88
2022/09/14 05:25:27;;;;;;;;;;;;;;;;;;5074072;28;19916;-89
2022/09/14 05:27:53;;;;;;;;;;;;;;;;;;5072361;28;19916;-90
2022/09/14 05:30:18;;;;;;;;;;;;;;;;;;5072312;28;19944;-90
2022/09/14 05:32:44;;;;;;;;;;;;;;;;;;5072267;28;20384;-89
2022/09/14 05:35:10;;;;;;;;;;;;;;;;;;5072317;28;20002;-90
2022/09/14 05:37:35;;;;;;;;;;;;;;;;;;5072435;28;19920;-89
2022/09/14 05:40:00;;;;;;;;;;;;;;;;;;5072822;28;19920;-90
2022/09/14 05:42:26;;;;;;;;;;;;;;;;;;5073178;28;19923;-89
2022/09/14 05:44:51;;;;;;;;;;;;;;;;;;5073536;28;19917;-88
2022/09/14 05:47:17;;;;;;;;;;;;;;;;;;5073830;28;20269;-90
2022/09/14 05:49:42;;;;;;;;;;;;;;;;;;5073635;28;19971;-90
2022/09/14 05:52:07;;;;;;;;;;;;;;;;;;5073526;28;19916;-89
2022/09/14 05:54:33;;;;;;;;;;;;;;;;;;5073350;28;19916;-90
2022/09/14 05:56:58;;;;;;;;;;;;;;;;;;5072609;28;19920;-89
2022/09/14 05:59:24;;;;;;;;;;;;;;;;;;5072196;28;20012;-90
2022/09/14 06:01:50;;;;;;;;;;;;;;;;;;5071618;28;19924;-89
2022/09/14 06:04:16;;;;;;;;;;;;;;;;;;5073183;28;19924;-89
2022/09/14 06:06:41;;;;;;;;;;;;;;;;;;5055272;28;19924;-90
2022/09/14 06:09:06;;;;;;;;;;;;;;;;;;5073486;28;19927;-89
2022/09/14 06:11:35;;;;;;;;;;;;;;;;;;5073332;28;20010;-90
2022/09/14 06:14:01;;;;;;;;;;;;;;;;;;5073048;28;19917;-90
2022/09/14 06:16:27;;;;;;;;;;;;;;;;;;5055165;28;19923;-90
2022/09/14 06:18:53;;;;;;;;;;;;;;;;;;5067228;28;20011;-90
2022/09/14 06:21:19;;;;;;;;;;;;;;;;;;5071886;28;19970;-92
2022/09/14 06:23:46;;;;;;;;;;;;;;;;;;5073231;28;19916;-89
2022/09/14 06:26:11;;;;;;;;;;;;;;;;;;5073097;28;19916;-89
2022/09/14 06:28:37;;;;;;;;;;;;;;;;;;5054960;28;20302;-90
2022/09/14 06:31:03;;;;;;;;;;;;;;;;;;5055198;28;19917;-89
2022/09/14 06:33:29;;;;;;;;;;;;;;;;;;5072994;28;19932;-90
2022/09/14 06:35:58;;;;;;;;;;;;;;;;;;5072971;28;19927;-89
2022/09/14 06:38:24;;;;;;;;;;;;;;;;;;5072904;28;19960;-89
2022/09/14 06:41:00;;;;;;;;;;;;;;;;;;5071814;28;19982;-90
2022/09/14 06:43:26;;;;;;;;;;;;;;;;;;5073028;28;19916;-90
2022/09/14 06:45:58;;;;;;;;;;;;;;;;;;5072880;28;19923;-88
2022/09/14 06:48:24;;;;;;;;;;;;;;;;;;5087638;28;19920;-90
2022/09/14 06:50:50;;;;;;;;;;;;;;;;;;5081710;28;20207;-89
2022/09/14 06:53:16;;;;;;;;;;;;;;;;;;5075687;28;20014;-89
2022/09/14 06:55:43;;;;;;;;;;;;;;;;;;5076628;28;19962;-89
2022/09/14 06:58:09;;;;;;;;;;;;;;;;;;5076681;28;19947;-89
2022/09/14 07:00:35;;;;;;;;;;;;;;;;;;5076657;28;19916;-88
2022/09/14 07:03:00;;;;;;;;;;;;;;;;;;5076899;28;20433;-88
2022/09/14 07:05:26;;;;;;;;;;;;;;;;;;5076503;28;19924;-88
2022/09/14 07:07:52;;;;;;;;;;;;;;;;;;5058973;28;19970;-88
2022/09/14 07:10:17;;;;;;;;;;;;;;;;;;5077068;28;20440;-87
2022/09/14 07:12:43;;;;;;;;;;;;;;;;;;5076372;28;20406;-88
2022/09/14 07:15:08;;;;;;;;;;;;;;;;;;5076104;28;20378;-88
2022/09/14 07:17:35;;;;;;;;;;;;;;;;;;5075938;28;19916;-89
2022/09/14 07:20:05;;;;;;;;;;;;;;;;;;5076241;28;20007;-87
2022/09/14 07:22:34;;;;;;;;;;;;;;;;;;5074096;28;19916;-87
2022/09/14 07:24:59;;;;;;;;;;;;;;;;;;5076071;28;19920;-88
2022/09/14 07:27:25;;;;;;;;;;;;;;;;;;5076042;28;19920;-87
2022/09/14 07:29:50;;;;;;;;;;;;;;;;;;5076048;28;19932;-88
2022/09/14 07:32:16;;;;;;;;;;;;;;;;;;5075887;28;19978;-87
2022/09/14 07:34:41;;;;;;;;;;;;;;;;;;5076019;28;19916;-88
2022/09/14 07:37:06;;;;;;;;;;;;;;;;;;5074546;28;19917;-88
2022/09/14 07:39:32;;;;;;;;;;;;;;;;;;5074544;28;19917;-87
2022/09/14 07:41:59;;;;;;;;;;;;;;;;;;5075852;28;20426;-89
2022/09/14 07:44:24;;;;;;;;;;;;;;;;;;5074589;28;19973;-87
2022/09/14 07:46:50;;;;;;;;;;;;;;;;;;5074320;28;19921;-88
2022/09/14 07:49:16;;;;;;;;;;;;;;;;;;5074299;28;20296;-87
2022/09/14 07:51:41;;;;;;;;;;;;;;;;;;5074413;28;19916;-87
2022/09/14 07:54:10;;;;;;;;;;;;;;;;;;5075763;28;20445;-87
2022/09/14 07:56:35;;;;;;;;;;;;;;;;;;5075613;28;19920;-88
2022/09/14 07:59:01;;;;;;;;;;;;;;;;;;5076771;28;19966;-89
2022/09/14 08:01:28;;;;;;;;;;;;;;;;;;5085109;28;20292;-88
2022/09/14 08:03:54;;;;;;;;;;;;;;;;;;5081617;28;20376;-87
2022/09/14 08:06:21;;;;;;;;;;;;;;;;;;5075038;28;19931;-87
2022/09/14 08:08:47;;;;;;;;;;;;;;;;;;5075093;28;19923;-87
2022/09/14 08:11:15;;;;;;;;;;;;;;;;;;5075110;28;19952;-87
2022/09/14 08:13:44;;;;;;;;;;;;;;;;;;5075238;28;19924;-87
2022/09/14 08:16:11;;;;;;;;;;;;;;;;;;5075162;28;19969;-87
2022/09/14 08:18:37;;;;;;;;;;;;;;;;;;5056770;28;19933;-88
2022/09/14 08:21:06;;;;;;;;;;;;;;;;;;5075155;28;19917;-87
2022/09/14 08:23:32;;;;;;;;;;;;;;;;;;5057518;28;20390;-88
2022/09/14 08:26:01;;;;;;;;;;;;;;;;;;5070788;28;19917;-88
2022/09/14 08:28:27;;;;;;;;;;;;;;;;;;5068620;28;19927;-88
2022/09/14 08:30:52;;;;;;;;;;;;;;;;;;5068659;28;19924;-89
2022/09/14 08:33:17;;;;;;;;;;;;;;;;;;5074729;28;19917;-88
2022/09/14 08:35:43;;;;;;;;;;;;;;;;;;5056701;28;19916;-88
2022/09/14 08:38:08;;;;;;;;;;;;;;;;;;5074794;28;19974;-88
2022/09/14 08:40:34;;;;;;;;;;;;;;;;;;5074669;28;19916;-89
2022/09/14 08:43:07;;;;;;;;;;;;;;;;;;5074463;28;20007;-90
2022/09/14 08:45:32;;;;;;;;;;;;;;;;;;5074537;28;20359;-88
2022/09/14 08:47:58;;;;;;;;;;;;;;;;;;5074529;28;20015;-88
2022/09/14 08:50:24;;;;;;;;;;;;;;;;;;5074526;28;19974;-87
2022/09/14 08:52:53;;;;;;;;;;;;;;;;;;5074558;28;20430;-88
2022/09/14 08:55:18;;;;;;;;;;;;;;;;;;5074331;28;20015;-88
2022/09/14 08:57:43;;;;;;;;;;;;;;;;;;5074257;28;19955;-89
2022/09/14 09:00:12;;;;;;;;;;;;;;;;;;5074246;28;20433;-88
2022/09/14 09:02:47;;;;;;;;;;;;;;;;;;5056435;28;19916;-88
2022/09/14 09:05:32;;;;;;;;;;;;;;;;;;5068762;28;19921;-88
2022/09/14 09:08:04;;;;;;;;;;;;;;;;;;5072993;28;20356;-88
2022/09/14 09:10:30;;;;;;;;;;;;;;;;;;5074285;28;19924;-88
2022/09/14 09:13:14;;;;;;;;;;;;;;;;;;5072056;28;19951;-89
2022/09/14 09:15:50;;;;;;;;;;;;;;;;;;5073515;28;19967;-90
2022/09/14 09:18:22;;;;;;;;;;;;;;;;;;5073819;28;19927;-91
2022/09/14 09:20:53;;;;;;;;;;;;;;;;;;5074645;28;19942;-90
2022/09/14 09:23:22;;;;;;;;;;;;;;;;;;5074345;28;19994;-89
2022/09/14 09:25:57;;;;;;;;;;;;;;;;;;5073787;28;19923;-89
2022/09/14 09:28:24;;;;;;;;;;;;;;;;;;5072534;28;20438;-88
2022/09/14 09:30:52;;;;;;;;;;;;;;;;;;5073808;28;19916;-90
2022/09/14 09:33:22;;;;;;;;;;;;;;;;;;5073746;28;20384;-89
2022/09/14 09:35:51;;;;;;;;;;;;;;;;;;5073523;28;19916;-88
2022/09/14 09:38:20;;;;;;;;;;;;;;;;;;5072227;28;19916;-89
2022/09/14 09:40:54;;;;;;;;;;;;;;;;;;5072447;28;19924;-88
2022/09/14 09:43:20;;;;;;;;;;;;;;;;;;5074288;28;19921;-89
2022/09/14 09:45:45;;;;;;;;;;;;;;;;;;5072100;28;20292;-90
2022/09/14 09:48:12;;;;;;;;;;;;;;;;;;5073568;28;19928;-90
2022/09/14 09:50:45;;;;;;;;;;;;;;;;;;5072718;28;19916;-88
2022/09/14 09:53:14;;;;;;;;;;;;;;;;;;5074286;28;19921;-89
2022/09/14 09:55:39;;;;;;;;;;;;;;;;;;5073631;28;19928;-88
2022/09/14 09:58:22;;;;;;;;;;;;;;;;;;5073129;28;19916;-90
2022/09/14 10:00:54;;;;;;;;;;;;;;;;;;5073521;28;19981;-88
2022/09/14 10:03:28;;;;;;;;;;;;;;;;;;5073208;28;20008;-90
2022/09/14 10:06:03;;;;;;;;;;;;;;;;;;5073007;28;19971;-89
2022/09/14 10:08:33;;;;;;;;;;;;;;;;;;5073220;28;19967;-88
2022/09/14 10:10:59;;;;;;;;;;;;;;;;;;5056927;28;20366;-89
2022/09/14 10:13:27;;;;;;;;;;;;;;;;;;5056309;28;19920;-87
2022/09/14 10:15:53;;;;;;;;;;;;;;;;;;5055231;28;19917;-88
2022/09/14 10:18:19;;;;;;;;;;;;;;;;;;5073351;28;19924;-88
2022/09/14 10:20:53;;;;;;;;;;;;;;;;;;5075517;28;19928;-88
2022/09/14 10:23:18;;;;;;;;;;;;;;;;;;5072994;28;20007;-88
2022/09/14 10:25:44;;;;;;;;;;;;;;;;;;5055096;28;19955;-89
2022/09/14 10:28:30;;;;;;;;;;;;;;;;;;5076183;28;20367;-89
2022/09/14 10:30:59;;;;;;;;;;;;;;;;;;5077294;28;20022;-88
2022/09/14 10:33:25;;;;;;;;;;;;;;;;;;5077242;28;19930;-89
2022/09/14 10:35:55;;;;;;;;;;;;;;;;;;5077181;28;20019;-88
2022/09/14 10:38:30;;;;;;;;;;;;;;;;;;5077018;28;19916;-89
2022/09/14 10:41:16;;;;;;;;;;;;;;;;;;5076984;28;19916;-90
2022/09/14 10:44:01;;;;;;;;;;;;;;;;;;5058975;28;19916;-90
2022/09/14 10:46:32;;;;;;;;;;;;;;;;;;5058849;28;19928;-89
2022/09/14 10:48:57;;;;;;;;;;;;;;;;;;5076836;28;19920;-88
2022/09/14 10:51:42;;;;;;;;;;;;;;;;;;5076814;28;19916;-88
2022/09/14 10:54:17;;;;;;;;;;;;;;;;;;5076546;28;19924;-88
2022/09/14 10:56:54;;;;;;;;;;;;;;;;;;5076635;28;19962;-88
2022/09/14 10:59:55;;;;;;;;;;;;;;;;;;5076698;28;19917;-88
2022/09/14 11:02:30;;;;;;;;;;;;;;;;;;4978537;28;19924;-88
2022/09/14 11:05:13;;;;;;;;;;;;;;;;;;4995759;28;20070;-88
2022/09/14 11:07:55;;;;;;;;;;;;;;;;;;4994783;28;19921;-89
2022/09/14 11:10:21;;;;;;;;;;;;;;;;;;4994510;28;19918;-90
2022/09/14 11:13:01;;;;;;;;;;;;;;;;;;4994395;28;19965;-88
2022/09/14 11:15:31;;;;;;;;;;;;;;;;;;4994508;28;19972;-89
2022/09/14 11:18:12;;;;;;;;;;;;;;;;;;4994336;28;20012;-88
2022/09/14 11:20:53;;;;;;;;;;;;;;;;;;4994709;28;20065;-88
2022/09/14 11:23:29;;;;;;;;;;;;;;;;;;4992962;28;19926;-88
2022/09/14 11:26:12;;;;;;;;;;;;;;;;;;4981922;28;19972;-89
2022/09/14 11:37:23;;;;;;;;;;;;;;;;;;5003887;23;20666;-88
2022/09/14 11:40:29;;;;;;;;;;;;;;;;;;4906186;29;19924;-90
2022/09/14 11:46:03;;;;;;;;;;;;;;;;;;4935491;23;19934;-88
2022/09/14 11:48:38;;;;;;;;;;;;;;;;;;4902468;29;19923;-87
2022/09/14 11:51:08;;;;;;;;;;;;;;;;;;4919423;29;19926;-87
2022/09/14 11:53:34;;;;;;;;;;;;;;;;;;4919405;29;19927;-87
2022/09/14 11:55:59;;;;;;;;;;;;;;;;;;4902138;29;20283;-87
2022/09/14 11:58:28;;;;;;;;;;;;;;;;;;4902125;29;19919;-89
2022/09/14 12:01:12;;;;;;;;;;;;;;;;;;4919173;29;19967;-88
2022/09/14 12:04:04;;;;;;;;;;;;;;;;;;4918988;29;19975;-88
2022/09/14 12:06:29;;;;;;;;;;;;;;;;;;4902060;29;19919;-89
2022/09/14 12:09:15;;;;;;;;;;;;;;;;;;4902095;29;20376;-88
2022/09/14 12:11:50;;;;;;;;;;;;;;;;;;4902120;29;19919;-87
2022/09/14 12:14:23;;;;;;;;;;;;;;;;;;4919149;29;19941;-87
2022/09/14 12:17:07;;;;;;;;;;;;;;;;;;4920186;29;19919;-88
2022/09/14 12:19:33;;;;;;;;;;;;;;;;;;4921383;29;20455;-88
2022/09/14 12:22:19;;;;;;;;;;;;;;;;;;4901628;29;19919;-88
2022/09/14 12:24:45;;;;;;;;;;;;;;;;;;4901900;29;19927;-88
2022/09/14 12:27:22;;;;;;;;;;;;;;;;;;4901857;29;20268;-88
2022/09/14 12:29:48;;;;;;;;;;;;;;;;;;4918805;29;19928;-88
2022/09/14 12:32:24;;;;;;;;;;;;;;;;;;4901602;29;20311;-88
2022/09/14 12:35:09;;;;;;;;;;;;;;;;;;4901849;29;19919;-89
2022/09/14 12:37:35;;;;;;;;;;;;;;;;;;4901633;29;19926;-88
2022/09/14 12:40:11;;;;;;;;;;;;;;;;;;4901922;29;19974;-88
2022/09/14 12:42:36;;;;;;;;;;;;;;;;;;4901747;29;19923;-88
2022/09/14 12:45:25;;;;;;;;;;;;;;;;;;4901537;29;20019;-87
2022/09/14 12:47:50;;;;;;;;;;;;;;;;;;4899756;29;19919;-89
2022/09/14 12:50:18;;;;;;;;;;;;;;;;;;4900856;29;19926;-88
2022/09/14 12:52:49;;;;;;;;;;;;;;;;;;4915595;29;19919;-88
2022/09/14 12:55:34;;;;;;;;;;;;;;;;;;4911024;29;19931;-88
2022/09/14 12:58:12;;;;;;;;;;;;;;;;;;4917606;29;19915;-88
2022/09/14 13:00:50;;;;;;;;;;;;;;;;;;4917820;29;19974;-87
2022/09/14 13:03:18;;;;;;;;;;;;;;;;;;4917506;29;20343;-87
2022/09/14 13:05:44;;;;;;;;;;;;;;;;;;4900681;29;19974;-87
2022/09/14 13:08:10;;;;;;;;;;;;;;;;;;4916765;29;19928;-88
2022/09/14 13:10:38;;;;;;;;;;;;;;;;;;4917480;29;20010;-88
2022/09/14 13:13:17;;;;;;;;;;;;;;;;;;4900513;29;19915;-88
2022/09/14 13:15:51;;;;;;;;;;;;;;;;;;4917597;29;19925;-89
2022/09/14 13:18:17;;;;;;;;;;;;;;;;;;4906293;29;19926;-89
2022/09/14 13:20:52;;;;;;;;;;;;;;;;;;4917351;29;19919;-89
2022/09/14 13:23:18;;;;;;;;;;;;;;;;;;4915851;29;19915;-89
2022/09/14 13:25:44;;;;;;;;;;;;;;;;;;4917024;29;19919;-88
2022/09/14 13:28:14;;;;;;;;;;;;;;;;;;4899990;29;19927;-90
2022/09/14 13:30:45;;;;;;;;;;;;;;;;;;5048421;23;19921;-87
2022/09/14 13:33:15;;;;;;;;;;;;;;;;;;4895797;29;19923;-88
2022/09/14 13:35:56;;;;;;;;;;;;;;;;;;4898365;29;19919;-89
2022/09/14 13:38:26;;;;;;;;;;;;;;;;;;4885160;29;19919;-87
2022/09/14 13:40:53;;;;;;;;;;;;;;;;;;4898598;29;19930;-88
2022/09/14 13:43:19;;;;;;;;;;;;;;;;;;4902584;29;19932;-88
2022/09/14 13:45:45;;;;;;;;;;;;;;;;;;4885079;29;19970;-89
2022/09/14 13:48:13;;;;;;;;;;;;;;;;;;4902172;29;19919;-88
2022/09/14 13:50:39;;;;;;;;;;;;;;;;;;4899495;29;19927;-88
2022/09/14 13:53:04;;;;;;;;;;;;;;;;;;4899066;29;19926;-88
2022/09/14 13:55:32;;;;;;;;;;;;;;;;;;4900165;29;20014;-88
2022/09/14 13:58:13;;;;;;;;;;;;;;;;;;4898144;29;20319;-88
2022/09/14 14:00:50;;;;;;;;;;;;;;;;;;4898223;29;19931;-88
2022/09/14 14:03:22;;;;;;;;;;;;;;;;;;4881264;29;19919;-88
2022/09/14 14:05:47;;;;;;;;;;;;;;;;;;4898334;29;20002;-87
2022/09/14 14:08:30;;;;;;;;;;;;;;;;;;4880608;29;20010;-88
2022/09/14 14:10:59;;;;;;;;;;;;;;;;;;4898341;29;19946;-89
2022/09/14 14:13:28;;;;;;;;;;;;;;;;;;4898341;29;20400;-86
2022/09/14 14:15:54;;;;;;;;;;;;;;;;;;4898067;29;19920;-88
2022/09/14 14:18:28;;;;;;;;;;;;;;;;;;4897978;29;20394;-89
2022/09/14 14:21:02;;;;;;;;;;;;;;;;;;4898061;29;20032;-89
2022/09/14 14:23:31;;;;;;;;;;;;;;;;;;4882589;29;20009;-87
2022/09/14 14:26:05;;;;;;;;;;;;;;;;;;4881404;29;19927;-88
2022/09/14 14:28:31;;;;;;;;;;;;;;;;;;4897664;29;19930;-89
2022/09/14 14:30:57;;;;;;;;;;;;;;;;;;4898214;29;19924;-89
2022/09/14 14:33:23;;;;;;;;;;;;;;;;;;4899922;29;19928;-88
2022/09/14 14:35:56;;;;;;;;;;;;;;;;;;4899276;29;19919;-88
2022/09/14 14:38:24;;;;;;;;;;;;;;;;;;4899777;29;20289;-87
2022/09/14 14:40:54;;;;;;;;;;;;;;;;;;4886904;29;19920;-88
2022/09/14 14:43:20;;;;;;;;;;;;;;;;;;4884884;29;19920;-88
2022/09/14 14:45:50;;;;;;;;;;;;;;;;;;4898867;29;19920;-88
2022/09/14 14:48:17;;;;;;;;;;;;;;;;;;4897956;29;19919;-86
2022/09/14 14:50:45;;;;;;;;;;;;;;;;;;4881068;29;20387;-88
2022/09/14 14:53:10;;;;;;;;;;;;;;;;;;4897684;29;19920;-87
2022/09/14 14:55:36;;;;;;;;;;;;;;;;;;4897065;29;20436;-86
2022/09/14 14:58:03;;;;;;;;;;;;;;;;;;4897784;29;19927;-87
2022/09/14 15:00:33;;;;;;;;;;;;;;;;;;4897744;29;19983;-87
2022/09/14 15:05:33;;;;;;;;;;;;;;;;;;4955475;23;20093;-88
2022/09/14 15:07:58;;;;;;;;;;;;;;;;;;4897659;29;19958;-88
2022/09/14 15:10:25;;;;;;;;;;;;;;;;;;4897754;29;19920;-88
2022/09/14 15:12:51;;;;;;;;;;;;;;;;;;4898355;29;19946;-88
2022/09/14 15:15:24;;;;;;;;;;;;;;;;;;4884531;29;19920;-87
2022/09/14 15:17:49;;;;;;;;;;;;;;;;;;4884240;29;19982;-87
2022/09/14 15:20:17;;;;;;;;;;;;;;;;;;4901073;29;20002;-87
2022/09/14 15:22:42;;;;;;;;;;;;;;;;;;4901016;29;20344;-88
2022/09/14 15:25:08;;;;;;;;;;;;;;;;;;4907787;29;19923;-87
2022/09/14 15:27:34;;;;;;;;;;;;;;;;;;4888868;29;19919;-89
2022/09/14 15:30:00;;;;;;;;;;;;;;;;;;4901523;29;20447;-88
2022/09/14 15:32:25;;;;;;;;;;;;;;;;;;4901104;29;20395;-88
2022/09/14 15:34:52;;;;;;;;;;;;;;;;;;4895716;29;19966;-88
2022/09/14 15:37:18;;;;;;;;;;;;;;;;;;4882378;29;20372;-87
2022/09/14 15:39:44;;;;;;;;;;;;;;;;;;4895886;29;19930;-88
2022/09/14 15:42:09;;;;;;;;;;;;;;;;;;4900678;29;19970;-87
2022/09/14 15:44:35;;;;;;;;;;;;;;;;;;4883901;29;19924;-88
2022/09/14 15:47:00;;;;;;;;;;;;;;;;;;4883585;29;19966;-89
2022/09/14 15:49:31;;;;;;;;;;;;;;;;;;4897346;29;20442;-88
2022/09/14 15:51:57;;;;;;;;;;;;;;;;;;4900694;29;19930;-88
2022/09/14 15:54:25;;;;;;;;;;;;;;;;;;4903055;29;19928;-87
2022/09/14 15:56:53;;;;;;;;;;;;;;;;;;4895004;29;19946;-88
2022/09/14 15:59:19;;;;;;;;;;;;;;;;;;4886419;29;19926;-87
2022/09/14 16:01:44;;;;;;;;;;;;;;;;;;4906455;29;19931;-86
2022/09/14 16:04:10;;;;;;;;;;;;;;;;;;4893476;29;19951;-87
2022/09/14 16:06:35;;;;;;;;;;;;;;;;;;4883966;29;20296;-86
2022/09/14 16:09:02;;;;;;;;;;;;;;;;;;4884095;29;20383;-86
2022/09/14 16:11:27;;;;;;;;;;;;;;;;;;4883773;29;20489;-87
2022/09/14 16:13:53;;;;;;;;;;;;;;;;;;4900108;29;19923;-88
2022/09/14 16:16:19;;;;;;;;;;;;;;;;;;4899160;29;19923;-89
2022/09/14 16:18:44;;;;;;;;;;;;;;;;;;4902447;29;20358;-88
2022/09/14 16:21:11;;;;;;;;;;;;;;;;;;4884617;29;19962;-88
2022/09/14 16:23:39;;;;;;;;;;;;;;;;;;4884045;29;20023;-86
2022/09/14 16:26:05;;;;;;;;;;;;;;;;;;4885103;29;19927;-87
2022/09/14 16:28:32;;;;;;;;;;;;;;;;;;4901430;29;19994;-87
2022/09/14 16:31:04;;;;;;;;;;;;;;;;;;4884136;29;19926;-87
2022/09/14 16:33:30;;;;;;;;;;;;;;;;;;4884149;29;19919;-88
2022/09/14 16:36:03;;;;;;;;;;;;;;;;;;4900177;29;19927;-88
2022/09/14 16:38:29;;;;;;;;;;;;;;;;;;4899222;29;20023;-87
2022/09/14 16:40:58;;;;;;;;;;;;;;;;;;4898840;29;20525;-88
2022/09/14 16:43:24;;;;;;;;;;;;;;;;;;4898529;29;19920;-88
2022/09/14 16:45:58;;;;;;;;;;;;;;;;;;4898450;29;19923;-87
2022/09/14 16:48:23;;;;;;;;;;;;;;;;;;4898366;29;20018;-88
2022/09/14 16:50:51;;;;;;;;;;;;;;;;;;4898685;29;20010;-89
2022/09/14 16:53:17;;;;;;;;;;;;;;;;;;4898682;29;20057;-88
2022/09/14 16:55:42;;;;;;;;;;;;;;;;;;4899581;29;19919;-88
2022/09/14 16:58:07;;;;;;;;;;;;;;;;;;4881877;29;20034;-87
2022/09/14 17:00:34;;;;;;;;;;;;;;;;;;4884536;29;20381;-86
2022/09/14 17:02:59;;;;;;;;;;;;;;;;;;4899386;29;19942;-87
2022/09/14 17:05:24;;;;;;;;;;;;;;;;;;4898676;29;20380;-86
2022/09/14 17:07:50;;;;;;;;;;;;;;;;;;4882189;29;19953;-86
2022/09/14 17:10:15;;;;;;;;;;;;;;;;;;4898811;29;19958;-87
2022/09/14 17:12:43;;;;;;;;;;;;;;;;;;4898624;29;19928;-87